TimeAKDT,TemperatureF,Dew PointF,Humidity,Sea Level PressureIn,VisibilityMPH,Wind Direction,Wind SpeedMPH,Gust SpeedMPH,PrecipitationIn,Events,Conditions,WindDirDegrees,DateUTC
12:53 AM,19.9,18.0,92,29.56,6.0,WSW,11.5,-,0.00,Snow,Light Snow,240,2012-10-16 08:53:00
1:53 AM,19.9,18.0,92,29.57,5.0,WSW,10.4,-,0.00,Snow,Light Snow,240,2012-10-16 09:53:00
2:26 AM,19.4,17.6,93,29.57,3.0,SW,8.1,-,0.00,Snow,Light Snow,220,2012-10-16 10:26:00
2:53 AM,19.9,18.0,92,29.58,1.8,SSW,6.9,-,0.00,Snow,Light Snow,200,2012-10-16 10:53:00
3:10 AM,19.4,17.6,93,29.57,3.0,SSW,8.1,-,0.00,Snow,Light Snow,200,2012-10-16 11:10:00
3:53 AM,19.9,17.1,89,29.58,3.0,SSW,9.2,-,0.00,Snow,Light Snow,210,2012-10-16 11:53:00
4:53 AM,19.9,18.0,92,29.59,3.0,SSW,9.2,-,0.00,Snow,Light Snow,210,2012-10-16 12:53:00
5:26 AM,19.4,17.6,93,29.59,2.0,SSW,6.9,-,0.00,Snow,Light Snow,200,2012-10-16 13:26:00
5:34 AM,19.4,17.6,93,29.59,4.0,SSW,9.2,-,0.00,Snow,Light Snow,210,2012-10-16 13:34:00
5:53 AM,19.9,17.1,89,29.60,4.0,SSW,9.2,-,0.00,Snow,Light Snow,210,2012-10-16 13:53:00
6:53 AM,18.0,16.0,92,29.62,5.0,SSW,6.9,-,0.00,,Mostly Cloudy,210,2012-10-16 14:53:00
7:53 AM,18.0,16.0,92,29.62,10.0,SSW,5.8,-,N/A,,Overcast,210,2012-10-16 15:53:00
8:53 AM,19.0,16.0,88,29.63,8.0,SW,4.6,-,N/A,,Overcast,220,2012-10-16 16:53:00
9:27 AM,19.4,17.6,93,29.63,1.0,SW,5.8,-,0.00,Snow,Light Snow,220,2012-10-16 17:27:00
9:53 AM,19.9,17.1,89,29.65,1.0,SW,8.1,-,0.00,Snow,Light Snow,230,2012-10-16 17:53:00
10:53 AM,19.9,17.1,89,29.65,1.0,SW,9.2,-,0.01,Snow,Light Snow,230,2012-10-16 18:53:00
11:53 AM,19.9,18.0,92,29.67,1.0,SW,11.5,-,0.00,Snow,Light Snow,230,2012-10-16 19:53:00
12:20 PM,19.4,17.6,93,29.66,0.8,SW,11.5,-,0.00,Snow,Light Snow,230,2012-10-16 20:20:00
12:53 PM,19.9,18.0,92,29.67,0.8,WSW,12.7,-,0.01,Snow,Light Snow,240,2012-10-16 20:53:00
1:28 PM,21.2,17.6,86,29.67,2.0,WSW,12.7,-,0.00,Snow,Light Snow,240,2012-10-16 21:28:00
1:40 PM,21.2,17.6,86,29.67,3.0,WSW,13.8,-,0.00,Snow,Light Snow,240,2012-10-16 21:40:00
1:53 PM,21.0,18.0,88,29.68,3.0,SW,12.7,-,0.00,Snow,Light Snow,230,2012-10-16 21:53:00
2:13 PM,21.2,17.6,86,29.68,1.8,SW,13.8,-,0.00,Snow,Light Snow,230,2012-10-16 22:13:00
2:26 PM,21.2,17.6,86,29.67,2.5,WSW,15.0,-,0.01,Snow,Light Snow,240,2012-10-16 22:26:00
2:45 PM,21.2,17.6,86,29.68,1.8,SW,13.8,-,0.01,Snow,Light Snow,230,2012-10-16 22:45:00
2:51 PM,21.2,17.6,86,29.68,2.5,SW,15.0,-,0.01,Snow,Light Snow,230,2012-10-16 22:51:00
2:53 PM,21.0,18.0,88,29.69,2.5,SW,15.0,-,0.01,Snow,Light Snow,230,2012-10-16 22:53:00
3:03 PM,21.2,19.4,93,29.68,4.0,SW,15.0,-,0.00,Snow,Light Snow,230,2012-10-16 23:03:00
3:15 PM,21.2,19.4,93,29.68,8.0,SW,16.1,-,0.00,Snow,Light Snow,230,2012-10-16 23:15:00
3:53 PM,21.0,19.0,92,29.70,8.0,SW,16.1,-,0.00,Snow,Light Snow,230,2012-10-16 23:53:00
4:03 PM,21.2,19.4,93,29.68,4.0,SW,16.1,-,0.00,Snow,Light Snow,230,2012-10-17 00:03:00
4:15 PM,21.2,19.4,93,29.69,2.0,SW,15.0,-,0.00,Snow,Light Snow,230,2012-10-17 00:15:00
4:47 PM,21.2,19.4,93,29.70,1.5,SW,15.0,-,0.00,Snow,Light Snow,220,2012-10-17 00:47:00
4:53 PM,21.9,19.0,89,29.70,1.2,SSW,13.8,-,0.00,Snow,Light Snow,210,2012-10-17 00:53:00
5:08 PM,21.2,19.4,93,29.70,2.0,SSW,15.0,-,0.00,Snow,Light Snow,210,2012-10-17 01:08:00
5:22 PM,21.2,19.4,93,29.71,6.0,SSW,12.7,-,0.00,Snow,Light Snow,210,2012-10-17 01:22:00
5:53 PM,21.0,19.0,92,29.73,3.0,SSW,11.5,-,0.00,Snow,Light Snow,210,2012-10-17 01:53:00
6:53 PM,21.0,19.0,92,29.74,6.0,SSW,11.5,-,0.00,Snow,Light Snow,210,2012-10-17 02:53:00
7:53 PM,21.9,19.0,89,29.75,3.0,SW,9.2,-,0.00,Snow,Light Snow,220,2012-10-17 03:53:00
8:53 PM,21.9,19.0,89,29.76,9.0,SW,8.1,-,0.00,Snow,Light Snow,230,2012-10-17 04:53:00
9:53 PM,21.9,19.0,89,29.78,9.0,SW,6.9,-,0.00,Snow,Light Snow,230,2012-10-17 05:53:00
10:53 PM,21.9,19.0,89,29.79,9.0,WSW,8.1,-,0.00,Snow,Light Snow,240,2012-10-17 06:53:00
11:53 PM,21.9,19.0,89,29.80,3.0,WSW,6.9,-,0.00,Snow,Light Snow,240,2012-10-17 07:53:00